Time;durP1;ratioP1;P1;durP2;ratioP2;P2;SDS_P1;SDS_P2;PMS_P1;PMS_P2;Temp;Humidity;BMP_temperature;BMP_pressure;BME280_temperature;BME280_humidity;BME280_pressure;Samples;Min_cycle;Max_cycle;Signal;HPM_P1;HPM_P2
2021/05/24 00:00:30;;;;;;;0.60;0.60;;;;;;;8.81;65.28;96866.53;29395;280;63009;-64
2021/05/24 00:01:03;;;;;;;0.60;0.60;;;;;;;8.80;64.85;96870.34;29395;230;63009;-64
2021/05/24 00:01:34;;;;;;;0.50;0.50;;;;;;;8.80;65.17;96866.81;29395;302;63008;-64
2021/05/24 00:02:05;;;;;;;0.50;0.50;;;;;;;8.80;65.16;96866.81;29395;242;63004;-64
2021/05/24 00:02:37;;;;;;;0.50;0.50;;;;;;;8.78;64.84;96860.87;29395;231;63009;-63
2021/05/24 00:03:09;;;;;;;0.60;0.60;;;;;;;8.77;64.95;96861.97;29394;276;64009;-65
2021/05/24 00:03:40;;;;;;;0.60;0.60;;;;;;;8.79;65.28;96870.63;29395;227;63009;-65
2021/05/24 00:04:11;;;;;;;0.60;0.60;;;;;;;8.80;64.70;96864.12;29395;278;63005;-64
2021/05/24 00:04:43;;;;;;;0.60;0.60;;;;;;;8.80;64.90;96866.81;29395;274;63009;-63
2021/05/24 00:05:18;;;;;;;0.60;0.60;;;;;;;8.80;64.61;96861.41;29395;202;63005;-64
2021/05/24 00:05:50;;;;;;;0.57;0.57;;;;;;;8.78;64.75;96860.87;29395;225;63009;-64
2021/05/24 00:06:21;;;;;;;0.60;0.60;;;;;;;8.77;64.81;96859.28;29394;213;64004;-65
2021/05/24 00:06:52;;;;;;;0.60;0.60;;;;;;;8.71;64.74;96845.78;29395;223;63009;-63
2021/05/24 00:07:23;;;;;;;0.50;0.50;;;;;;;8.76;64.54;96847.63;29395;196;63004;-63
2021/05/24 00:07:55;;;;;;;0.60;0.60;;;;;;;8.77;64.73;96848.44;29395;307;63016;-63
2021/05/24 00:08:27;;;;;;;0.60;0.60;;;;;;;8.77;64.42;96848.44;29394;202;64021;-64
2021/05/24 00:08:58;;;;;;;0.50;0.50;;;;;;;8.76;64.33;96841.41;29395;312;63008;-63
2021/05/24 00:09:33;;;;;;;0.57;0.57;;;;;;;8.74;64.10;96845.22;29395;196;63004;-64
2021/05/24 00:10:07;;;;;;;0.60;0.60;;;;;;;8.73;64.31;96843.59;29395;228;63021;-63
2021/05/24 00:10:40;;;;;;;0.60;0.60;;;;;;;8.73;64.01;96849.00;29395;271;63005;-65
2021/05/24 00:11:12;;;;;;;0.50;0.50;;;;;;;8.73;64.43;96846.31;29395;224;63009;-64
2021/05/24 00:11:43;;;;;;;0.55;0.55;;;;;;;8.73;64.19;96849.00;29395;218;63005;-63
2021/05/24 00:12:14;;;;;;;0.60;0.60;;;;;;;8.73;64.43;96843.59;29395;223;63009;-64
2021/05/24 00:12:49;;;;;;;0.57;0.57;;;;;;;8.74;64.33;96839.81;29395;211;63000;-64
2021/05/24 00:13:23;;;;;;;0.60;0.60;;;;;;;8.76;63.95;96836.81;29394;256;64013;-65
2021/05/24 00:13:56;;;;;;;0.50;0.50;;;;;;;8.77;64.23;96837.63;29394;274;64009;-63
2021/05/24 00:14:28;;;;;;;0.60;0.60;;;;;;;8.76;64.15;96841.41;29395;298;63009;-64
2021/05/24 00:15:00;;;;;;;0.60;0.60;;;;;;;8.76;64.13;96831.41;29395;222;63004;-64
2021/05/24 00:15:40;;;;;;;0.60;0.60;;;;;;;8.75;64.20;96829.78;29395;271;63009;-63
2021/05/24 00:16:12;;;;;;;0.60;0.60;;;;;;;8.76;64.16;96830.59;29417;292;63004;-62
2021/05/24 00:16:43;;;;;;;0.50;0.50;;;;;;;8.77;64.05;96837.63;29395;239;63016;-65
2021/05/24 00:17:14;;;;;;;0.60;0.60;;;;;;;8.75;64.34;96829.78;29394;211;64009;-64
2021/05/24 00:17:50;;;;;;;0.60;0.60;;;;;;;8.74;64.13;96834.41;29395;290;63009;-59
2021/05/24 00:18:22;;;;;;;0.60;0.60;;;;;;;8.74;64.16;96828.97;29395;229;63005;-64
2021/05/24 00:18:53;;;;;;;0.60;0.60;;;;;;;8.73;64.28;96831.97;29395;219;63009;-62
2021/05/24 00:19:24;;;;;;;0.50;0.50;;;;;;;8.73;64.35;96827.38;29395;268;63005;-62
2021/05/24 00:19:56;;;;;;;0.60;0.60;;;;;;;8.73;64.60;96827.38;29395;292;63009;-64
2021/05/24 00:20:31;;;;;;;0.60;0.60;;;;;;;8.73;64.43;96821.16;29395;225;63005;-64
2021/05/24 00:21:02;;;;;;;0.60;0.60;;;;;;;8.72;64.36;96824.94;29394;218;64013;-63
2021/05/24 00:21:33;;;;;;;0.60;0.60;;;;;;;8.72;64.33;96831.16;29395;271;63004;-64
2021/05/24 00:22:04;;;;;;;0.57;0.57;;;;;;;8.73;64.14;96827.38;29395;212;63009;-59
2021/05/24 00:22:36;;;;;;;0.60;0.60;;;;;;;8.73;64.21;96832.78;29394;230;64009;-63
2021/05/24 00:23:07;;;;;;;0.60;0.60;;;;;;;8.73;64.53;96824.66;29395;256;63009;-64
2021/05/24 00:23:39;;;;;;;0.50;0.50;;;;;;;8.73;64.17;96832.78;29395;196;63009;-64
2021/05/24 00:24:13;;;;;;;0.60;0.60;;;;;;;8.73;64.18;96827.38;29395;236;63008;-64
2021/05/24 00:24:44;;;;;;;0.50;0.50;;;;;;;8.74;64.26;96823.56;29395;198;63005;-64
2021/05/24 00:25:15;;;;;;;0.60;0.60;;;;;;;8.73;64.72;96826.56;29395;203;63009;-64
2021/05/24 00:25:47;;;;;;;0.60;0.60;;;;;;;8.71;64.39;96824.13;29395;234;63005;-64
2021/05/24 00:26:18;;;;;;;0.60;0.60;;;;;;;8.70;64.52;96819.81;29395;266;63009;-64
2021/05/24 00:26:49;;;;;;;0.60;0.60;;;;;;;8.70;64.50;96822.53;29395;234;63005;-65
2021/05/24 00:27:20;;;;;;;0.60;0.60;;;;;;;8.67;64.73;96828.50;29394;197;64013;-63
2021/05/24 00:27:52;;;;;;;0.60;0.60;;;;;;;8.65;64.73;96821.78;29395;249;63013;-64
2021/05/24 00:28:23;;;;;;;0.60;0.60;;;;;;;8.65;64.85;96819.88;29395;260;63009;-63
2021/05/24 00:28:55;;;;;;;0.60;0.60;;;;;;;8.65;64.64;96825.28;29395;230;63004;-65
2021/05/24 00:29:27;;;;;;;0.52;0.52;;;;;;;8.67;64.31;96825.78;29395;280;63009;-64
2021/05/24 00:29:58;;;;;;;0.60;0.60;;;;;;;8.68;64.28;96824.69;29395;262;63004;-63
2021/05/24 00:30:33;;;;;;;0.60;0.60;;;;;;;8.68;64.68;96819.28;29395;237;63009;-64
2021/05/24 00:31:05;;;;;;;0.60;0.60;;;;;;;8.66;64.75;96826.88;29394;282;64004;-64
2021/05/24 00:31:36;;;;;;;0.60;0.60;;;;;;;8.65;64.49;96817.19;29394;245;64013;-62
2021/05/24 00:32:07;;;;;;;0.50;0.50;;;;;;;8.64;64.53;96823.66;29395;289;63005;-64
2021/05/24 00:32:39;;;;;;;0.60;0.60;;;;;;;8.65;64.80;96827.19;29395;238;63009;-63
2021/05/24 00:33:11;;;;;;;0.60;0.60;;;;;;;8.66;64.53;96831.50;29395;204;63005;-63
2021/05/24 00:33:42;;;;;;;0.60;0.60;;;;;;;8.63;64.97;96824.75;29395;236;63018;-64
2021/05/24 00:34:15;;;;;;;0.60;0.60;;;;;;;8.61;64.57;96826.12;29395;255;63005;-64
2021/05/24 00:34:46;;;;;;;0.52;0.52;;;;;;;8.61;64.88;96828.84;29395;281;63009;-62
2021/05/24 00:35:18;;;;;;;0.60;0.60;;;;;;;8.59;64.75;96829.13;29395;207;63005;-62
2021/05/24 00:35:49;;;;;;;0.50;0.50;;;;;;;8.58;64.81;96827.50;29394;218;64013;-63
2021/05/24 00:36:20;;;;;;;0.60;0.60;;;;;;;8.61;64.77;96824.22;29395;222;63004;-65
2021/05/24 00:36:52;;;;;;;0.60;0.60;;;;;;;8.63;64.97;96827.47;29395;217;63009;-64
2021/05/24 00:37:24;;;;;;;0.60;0.60;;;;;;;8.66;64.96;96828.81;29395;210;63004;-64
2021/05/24 00:37:57;;;;;;;0.60;0.60;;;;;;;8.65;64.74;96825.28;29394;232;64009;-65
2021/05/24 00:38:28;;;;;;;0.60;0.60;;;;;;;8.64;64.61;96826.38;29395;223;63004;-62
2021/05/24 00:38:59;;;;;;;0.60;0.60;;;;;;;8.67;64.91;96823.09;29395;201;63008;-63
2021/05/24 00:39:31;;;;;;;0.60;0.60;;;;;;;8.67;64.69;96827.69;29395;236;63005;-64
2021/05/24 00:40:04;;;;;;;0.60;0.60;;;;;;;8.70;64.70;96827.12;29395;281;63009;-63
2021/05/24 00:40:37;;;;;;;0.60;0.60;;;;;;;8.70;64.56;96827.94;29395;197;63005;-62
2021/05/24 00:41:08;;;;;;;0.60;0.60;;;;;;;8.71;64.68;96824.13;29394;236;64013;-64
2021/05/24 00:41:41;;;;;;;0.60;0.60;;;;;;;8.70;64.48;96816.31;29395;245;63005;-57
2021/05/24 00:42:13;;;;;;;0.60;0.60;;;;;;;8.69;64.74;96826.31;29395;220;63009;-61
2021/05/24 00:42:46;;;;;;;0.60;0.60;;;;;;;8.69;64.63;96815.50;29395;242;63005;-63
2021/05/24 00:43:17;;;;;;;0.60;0.60;;;;;;;8.70;64.75;96816.31;29395;220;63009;-63
2021/05/24 00:43:48;;;;;;;0.60;0.60;;;;;;;8.70;64.45;96817.09;29394;214;64009;-61
2021/05/24 00:44:21;;;;;;;0.60;0.60;;;;;;;8.70;64.72;96816.31;29395;202;63009;-64
2021/05/24 00:44:53;;;;;;;0.60;0.60;;;;;;;8.69;64.68;96814.69;29394;231;64009;-62
2021/05/24 00:45:24;;;;;;;0.60;0.60;;;;;;;8.65;64.89;96813.66;29395;282;63009;-63
2021/05/24 00:45:56;;;;;;;0.60;0.60;;;;;;;8.65;64.90;96808.25;29395;219;63004;-57
2021/05/24 00:46:27;;;;;;;0.60;0.60;;;;;;;8.62;64.87;96804.22;29395;272;63004;-62
2021/05/24 00:46:58;;;;;;;0.60;0.60;;;;;;;8.62;65.17;96808.81;29395;196;63005;-64
2021/05/24 00:47:30;;;;;;;0.50;0.50;;;;;;;8.60;65.27;96811.00;29395;244;63009;-64
2021/05/24 00:48:02;;;;;;;0.60;0.60;;;;;;;8.60;64.95;96800.97;29395;228;63005;-61
2021/05/24 00:48:33;;;;;;;0.55;0.55;;;;;;;8.60;65.14;96805.59;29395;217;63009;-59
2021/05/24 00:49:05;;;;;;;0.60;0.60;;;;;;;8.60;65.13;96811.00;29395;209;63005;-62
2021/05/24 00:49:36;;;;;;;0.60;0.60;;;;;;;8.59;65.32;96802.06;29395;270;63009;-57
2021/05/24 00:50:09;;;;;;;0.60;0.60;;;;;;;8.59;65.43;96793.94;29394;202;64009;-60
2021/05/24 00:50:41;;;;;;;0.60;0.60;;;;;;;8.60;65.26;96795.56;29395;324;63009;-62
2021/05/24 00:51:12;;;;;;;0.60;0.60;;;;;;;8.59;65.34;96799.37;29395;202;63004;-63
2021/05/24 00:51:43;;;;;;;0.60;0.60;;;;;;;8.60;65.31;96790.16;29395;204;63009;-62
2021/05/24 00:52:14;;;;;;;0.52;0.52;;;;;;;8.62;65.35;96787.19;29395;294;63017;-63
2021/05/24 00:52:46;;;;;;;0.60;0.60;;;;;;;8.61;65.32;96790.97;29395;244;63009;-64
2021/05/24 00:53:17;;;;;;;0.60;0.60;;;;;;;8.60;65.27;96782.06;29395;216;63004;-62
2021/05/24 00:53:49;;;;;;;0.60;0.60;;;;;;;8.60;65.32;96784.75;29394;237;64013;-63
2021/05/24 00:54:21;;;;;;;0.55;0.55;;;;;;;8.59;65.39;96785.84;29395;242;63004;-63
2021/05/24 00:54:52;;;;;;;0.60;0.60;;;;;;;8.63;65.38;96789.59;29395;221;63009;-62
2021/05/24 00:55:23;;;;;;;0.60;0.60;;;;;;;8.64;65.12;96785.00;29395;220;63005;-63
2021/05/24 00:55:54;;;;;;;0.60;0.60;;;;;;;8.66;65.46;96782.81;29395;254;63018;-63
2021/05/24 00:56:26;;;;;;;0.60;0.60;;;;;;;8.68;64.92;96792.25;29395;221;63005;-61
2021/05/24 00:57:01;;;;;;;0.60;0.60;;;;;;;8.66;65.11;96783.59;29395;221;63009;-63
2021/05/24 00:57:32;;;;;;;0.60;0.60;;;;;;;8.64;65.04;96788.50;29394;221;64009;-64
2021/05/24 00:58:05;;;;;;;0.50;0.50;;;;;;;8.61;64.95;96775.56;29395;219;63009;-61
2021/05/24 00:58:37;;;;;;;0.60;0.60;;;;;;;8.59;64.93;96777.72;29395;208;63004;-58
2021/05/24 00:59:08;;;;;;;0.60;0.60;;;;;;;8.62;65.14;96785.28;29395;246;63009;-61
2021/05/24 00:59:39;;;;;;;0.60;0.60;;;;;;;8.61;65.03;96775.56;29394;240;64009;-60
2021/05/24 01:00:21;;;;;;;0.50;0.50;;;;;;;8.63;65.01;96778.78;29395;236;63009;-61
2021/05/24 01:00:52;;;;;;;0.60;0.60;;;;;;;8.60;65.00;96779.34;29395;202;63004;-59
2021/05/24 01:01:27;;;;;;;0.60;0.60;;;;;;;8.56;65.19;96782.88;29395;248;63008;-64
2021/05/24 01:01:58;;;;;;;0.60;0.60;;;;;;;8.56;65.13;96777.47;29395;201;63005;-63
2021/05/24 01:02:30;;;;;;;0.60;0.60;;;;;;;8.55;65.51;96775.88;29395;258;63009;-59
2021/05/24 01:03:03;;;;;;;0.60;0.60;;;;;;;8.56;65.32;96775.59;29395;300;63005;-63
2021/05/24 01:03:35;;;;;;;0.60;0.60;;;;;;;8.56;65.33;96778.28;29395;267;63009;-63
2021/05/24 01:04:06;;;;;;;0.60;0.60;;;;;;;8.53;65.29;96778.84;29395;219;63005;-58
2021/05/24 01:04:38;;;;;;;0.60;0.60;;;;;;;8.51;65.51;96780.22;29394;208;64013;-62
2021/05/24 01:05:10;;;;;;;0.60;0.60;;;;;;;8.49;65.44;96783.22;29395;218;63005;-61
2021/05/24 01:05:43;;;;;;;0.60;0.60;;;;;;;8.48;65.58;96781.59;29395;211;63009;-63
2021/05/24 01:06:15;;;;;;;0.60;0.60;;;;;;;8.47;65.77;96779.97;29395;202;63004;-65
2021/05/24 01:06:50;;;;;;;0.60;0.60;;;;;;;8.44;65.78;96780.53;29395;234;63009;-64
2021/05/24 01:07:21;;;;;;;0.60;0.60;;;;;;;8.43;65.89;96783.53;29394;224;64009;-64
2021/05/24 01:07:53;;;;;;;0.60;0.60;;;;;;;8.43;65.97;96789.72;29395;238;63008;-62
2021/05/24 01:08:25;;;;;;;0.60;0.60;;;;;;;8.41;65.73;96775.69;29395;208;63004;-65
2021/05/24 01:08:56;;;;;;;0.60;0.60;;;;;;;8.40;66.01;96784.87;29395;237;63008;-63
2021/05/24 01:09:29;;;;;;;0.60;0.60;;;;;;;8.42;66.01;96782.72;29395;248;63004;-60
2021/05/24 01:10:00;;;;;;;0.60;0.60;;;;;;;8.46;65.98;96778.34;29395;209;63009;-63
2021/05/24 01:10:33;;;;;;;0.60;0.60;;;;;;;8.47;65.77;96779.97;29395;211;63005;-61
2021/05/24 01:11:06;;;;;;;0.60;0.60;;;;;;;8.46;65.84;96772.94;29395;224;63009;-60
2021/05/24 01:11:37;;;;;;;0.60;0.60;;;;;;;8.44;66.00;96771.63;29395;226;63000;-64
2021/05/24 01:12:09;;;;;;;0.60;0.60;;;;;;;8.43;66.02;96773.50;29394;224;64013;-62
2021/05/24 01:12:41;;;;;;;0.60;0.60;;;;;;;8.41;65.84;96770.28;29395;230;63005;-63
2021/05/24 01:13:14;;;;;;;0.60;0.60;;;;;;;8.42;66.14;96771.09;29395;206;63009;-58
2021/05/24 01:13:45;;;;;;;0.60;0.60;;;;;;;8.42;65.87;96773.78;29395;225;63004;-65
2021/05/24 01:14:17;;;;;;;0.60;0.60;;;;;;;8.45;66.06;96776.75;29395;224;63009;-62
2021/05/24 01:14:48;;;;;;;0.60;0.60;;;;;;;8.45;65.94;96770.53;29395;268;63004;-62
2021/05/24 01:15:28;;;;;;;0.60;0.60;;;;;;;8.43;65.83;96773.50;29395;231;63009;-62
2021/05/24 01:15:59;;;;;;;0.60;0.60;;;;;;;8.41;65.99;96770.28;29395;213;63004;-61
2021/05/24 01:16:33;;;;;;;0.60;0.60;;;;;;;8.44;65.97;96774.31;29394;230;64014;-64
2021/05/24 01:17:07;;;;;;;0.60;0.60;;;;;;;8.41;65.72;96770.28;29395;285;63001;-61
2021/05/24 01:17:40;;;;;;;0.60;0.60;;;;;;;8.39;66.05;96767.84;29395;221;63009;-61
2021/05/24 01:18:11;;;;;;;0.60;0.60;;;;;;;8.38;65.96;96765.44;29395;238;63005;-61
2021/05/24 01:18:43;;;;;;;0.60;0.60;;;;;;;8.38;66.06;96765.44;29395;197;63009;-65
2021/05/24 01:19:14;;;;;;;0.60;0.60;;;;;;;8.35;65.84;96761.41;29395;225;63008;-64
2021/05/24 01:19:47;;;;;;;0.60;0.60;;;;;;;8.34;65.91;96770.59;29395;287;63009;-63
2021/05/24 01:20:18;;;;;;;0.60;0.60;;;;;;;8.33;66.14;96768.97;29395;204;63005;-63
2021/05/24 01:20:50;;;;;;;0.60;0.60;;;;;;;8.32;66.45;96766.53;29394;244;64013;-62
2021/05/24 01:21:23;;;;;;;0.60;0.60;;;;;;;8.35;66.10;96771.41;29395;226;63004;-64
2021/05/24 01:21:54;;;;;;;0.73;0.73;;;;;;;8.35;66.19;96771.41;29395;236;63009;-63
2021/05/24 01:22:26;;;;;;;0.60;0.60;;;;;;;8.36;66.05;96771.13;29395;222;63004;-62
2021/05/24 01:23:09;;;;;;;0.60;0.60;;;;;;;8.37;66.25;96770.03;29395;232;63008;-64
2021/05/24 01:23:45;;;;;;;0.60;0.60;;;;;;;8.36;65.92;96763.00;29395;237;63017;-62
2021/05/24 01:24:21;;;;;;;0.60;0.60;;;;;;;8.37;65.95;96766.53;29394;307;64014;-62
2021/05/24 01:24:52;;;;;;;0.60;0.60;;;;;;;8.37;66.02;96769.22;29395;219;63005;-63
2021/05/24 01:25:24;;;;;;;0.60;0.60;;;;;;;8.37;66.12;96769.22;29395;232;63009;-63
2021/05/24 01:25:55;;;;;;;0.60;0.60;;;;;;;8.35;65.80;96764.09;29395;277;63005;-63
2021/05/24 01:26:27;;;;;;;0.60;0.60;;;;;;;8.32;66.16;96758.41;29395;273;63014;-63
2021/05/24 01:26:58;;;;;;;0.60;0.60;;;;;;;8.31;66.28;96759.53;29395;223;63005;-62
2021/05/24 01:27:30;;;;;;;0.60;0.60;;;;;;;8.29;66.32;96751.69;29395;250;63009;-61
2021/05/24 01:28:02;;;;;;;0.60;0.60;;;;;;;8.32;66.41;96755.72;29394;255;64009;-64
2021/05/24 01:28:33;;;;;;;0.60;0.60;;;;;;;8.31;66.29;96754.13;29395;231;63009;-63
2021/05/24 01:29:06;;;;;;;0.60;0.60;;;;;;;8.32;66.22;96745.72;29395;203;63004;-63
2021/05/24 01:29:38;;;;;;;0.60;0.60;;;;;;;8.31;66.21;96749.53;29395;204;63009;-63
2021/05/24 01:30:12;;;;;;;0.60;0.60;;;;;;;8.30;65.99;96753.31;29395;261;63004;-63
2021/05/24 01:30:44;;;;;;;0.60;0.60;;;;;;;8.31;66.42;96751.41;29395;313;63008;-61
2021/05/24 01:31:15;;;;;;;1.10;1.10;;;;;;;8.32;66.08;96761.13;29395;244;63004;-63
2021/05/24 01:31:48;;;;;;;0.60;0.60;;;;;;;8.31;66.27;96757.62;29395;240;63009;-64
2021/05/24 01:32:20;;;;;;;0.60;0.60;;;;;;;8.31;66.25;96751.41;29394;246;64009;-63
2021/05/24 01:32:52;;;;;;;0.60;0.60;;;;;;;8.36;66.17;96751.38;29395;224;63009;-62
2021/05/24 01:33:23;;;;;;;0.60;0.60;;;;;;;8.35;66.11;96744.38;29395;213;63005;-62
2021/05/24 01:33:57;;;;;;;0.60;0.60;;;;;;;8.35;66.24;96738.97;29395;240;63009;-62
2021/05/24 01:34:29;;;;;;;0.60;0.60;;;;;;;8.35;66.22;96744.38;29395;314;63005;-62
2021/05/24 01:35:00;;;;;;;0.60;0.60;;;;;;;8.34;66.16;96743.56;29395;213;63009;-63
2021/05/24 01:35:32;;;;;;;0.60;0.60;;;;;;;8.33;66.30;96741.13;29395;208;63009;-63
2021/05/24 01:36:07;;;;;;;0.60;0.60;;;;;;;8.32;66.26;96742.19;29395;288;63009;-62
2021/05/24 01:36:38;;;;;;;0.60;0.60;;;;;;;8.30;66.37;96737.09;29394;235;64009;-63
2021/05/24 01:37:09;;;;;;;0.60;0.60;;;;;;;8.30;66.39;96742.50;29395;270;63009;-62
2021/05/24 01:37:43;;;;;;;0.60;0.60;;;;;;;8.30;66.31;96742.50;29395;279;63009;-64
2021/05/24 01:38:15;;;;;;;0.60;0.60;;;;;;;8.30;66.55;96745.22;29395;234;63008;-64
2021/05/24 01:38:46;;;;;;;0.60;0.60;;;;;;;8.30;66.21;96744.41;29395;204;63004;-63
2021/05/24 01:39:19;;;;;;;0.60;0.60;;;;;;;8.31;66.34;96743.31;29394;237;64014;-59
2021/05/24 01:39:51;;;;;;;0.60;0.60;;;;;;;8.31;66.20;96743.31;29395;209;63005;-63
2021/05/24 01:40:23;;;;;;;0.60;0.60;;;;;;;8.31;66.33;96746.00;29395;227;63009;-63
2021/05/24 01:40:54;;;;;;;0.60;0.60;;;;;;;8.30;66.43;96739.81;29395;231;63005;-63
2021/05/24 01:41:25;;;;;;;0.60;0.60;;;;;;;8.34;66.23;96742.75;29395;209;63009;-63
2021/05/24 01:41:57;;;;;;;0.60;0.60;;;;;;;8.34;66.14;96745.44;29395;236;63005;-64
2021/05/24 01:42:28;;;;;;;0.60;0.60;;;;;;;8.32;66.31;96740.31;29394;206;64013;-63
2021/05/24 01:43:01;;;;;;;0.60;0.60;;;;;;;8.35;66.13;96747.06;29395;225;63006;-63
2021/05/24 01:43:33;;;;;;;0.60;0.60;;;;;;;8.36;66.14;96748.69;29395;229;63009;-63
2021/05/24 01:44:05;;;;;;;0.60;0.60;;;;;;;8.37;66.10;96753.00;29395;216;63004;-63
2021/05/24 01:44:41;;;;;;;0.60;0.60;;;;;;;8.37;65.95;96742.19;29395;228;63009;-63
2021/05/24 01:45:14;;;;;;;0.60;0.60;;;;;;;8.37;66.15;96739.50;29395;237;63004;-63
2021/05/24 01:45:47;;;;;;;0.52;0.52;;;;;;;8.37;65.95;96739.50;29395;224;63008;-63
2021/05/24 01:46:18;;;;;;;0.60;0.60;;;;;;;8.38;65.88;96733.78;29395;203;63004;-63
2021/05/24 01:46:51;;;;;;;0.60;0.60;;;;;;;8.38;65.91;96727.59;29395;203;63009;-63
2021/05/24 01:47:22;;;;;;;0.57;0.57;;;;;;;8.40;65.67;96728.09;29394;209;64009;-65
2021/05/24 01:47:54;;;;;;;0.50;0.50;;;;;;;8.39;65.80;96723.78;29395;249;63009;-62
2021/05/24 01:48:29;;;;;;;0.60;0.60;;;;;;;8.42;65.74;96723.22;29395;272;63005;-64
2021/05/24 01:49:01;;;;;;;0.60;0.60;;;;;;;8.41;65.85;96727.03;29395;228;63009;-63
2021/05/24 01:49:34;;;;;;;0.60;0.60;;;;;;;8.43;65.84;96727.56;29395;224;63000;-62
2021/05/24 01:50:07;;;;;;;0.60;0.60;;;;;;;8.42;65.97;96728.63;29395;209;63009;-58
2021/05/24 01:50:41;;;;;;;0.60;0.60;;;;;;;8.42;65.70;96734.03;29395;209;63004;-64
2021/05/24 01:51:16;;;;;;;0.60;0.60;;;;;;;8.40;65.90;96741.63;29395;199;63018;-60
2021/05/24 01:51:47;;;;;;;0.60;0.60;;;;;;;8.43;65.79;96740.25;29395;197;63004;-64
2021/05/24 01:52:19;;;;;;;0.60;0.60;;;;;;;8.44;65.75;96744.56;29395;229;63009;-62
2021/05/24 01:52:52;;;;;;;0.70;0.70;;;;;;;8.43;65.79;96741.06;29394;237;64009;-59
2021/05/24 01:53:23;;;;;;;0.60;0.60;;;;;;;8.42;65.68;96747.56;29395;218;63008;-63
2021/05/24 01:53:55;;;;;;;0.55;0.55;;;;;;;8.43;65.74;96735.66;29395;227;63012;-63
2021/05/24 01:54:26;;;;;;;0.60;0.60;;;;;;;8.44;65.72;96739.97;29395;264;63009;-64
2021/05/24 01:54:57;;;;;;;0.57;0.57;;;;;;;8.45;65.33;96738.87;29395;249;63005;-65
2021/05/24 01:55:28;;;;;;;0.60;0.60;;;;;;;8.43;65.35;96735.66;29395;260;63009;-62
2021/05/24 01:56:00;;;;;;;0.60;0.60;;;;;;;8.45;65.39;96738.09;29395;214;63005;-63
2021/05/24 01:56:31;;;;;;;0.60;0.60;;;;;;;8.44;65.55;96742.69;29395;197;63009;-62
2021/05/24 01:57:03;;;;;;;0.60;0.60;;;;;;;8.44;65.32;96742.69;29395;239;63007;-61
2021/05/24 01:57:34;;;;;;;0.60;0.60;;;;;;;8.46;65.41;96739.69;29394;205;64013;-63
2021/05/24 01:58:06;;;;;;;0.60;0.60;;;;;;;8.47;65.29;96741.31;29395;202;63005;-65
2021/05/24 01:58:37;;;;;;;0.60;0.60;;;;;;;8.50;65.31;96733.44;29395;225;63009;-64
2021/05/24 01:59:09;;;;;;;0.50;0.50;;;;;;;8.51;65.05;96735.06;29395;235;63004;-63
2021/05/24 01:59:41;;;;;;;0.60;0.60;;;;;;;8.50;65.35;96730.75;29395;210;63009;-63
2021/05/24 02:00:16;;;;;;;0.60;0.60;;;;;;;8.49;65.32;96726.41;29395;202;63004;-63
2021/05/24 02:00:47;;;;;;;0.60;0.60;;;;;;;8.49;65.61;96733.72;29395;211;63008;-64
2021/05/24 02:01:18;;;;;;;0.60;0.60;;;;;;;8.47;65.38;96731.31;29395;205;63004;-63
2021/05/24 02:01:50;;;;;;;0.60;0.60;;;;;;;8.45;65.48;96730.78;29394;237;64014;-64
2021/05/24 02:02:21;;;;;;;0.60;0.60;;;;;;;8.44;65.47;96726.47;29395;214;63005;-63
2021/05/24 02:02:54;;;;;;;0.60;0.60;;;;;;;8.43;65.84;96727.56;29395;204;63009;-63
2021/05/24 02:03:25;;;;;;;0.60;0.60;;;;;;;8.42;65.70;96730.53;29395;261;63005;-64
2021/05/24 02:03:56;;;;;;;0.60;0.60;;;;;;;8.40;65.64;96733.50;29395;232;63009;-64
2021/05/24 02:04:28;;;;;;;0.60;0.60;;;;;;;8.40;65.87;96736.22;29394;219;64009;-63
2021/05/24 02:05:00;;;;;;;0.60;0.60;;;;;;;8.40;66.01;96747.03;29395;250;63009;-63
2021/05/24 02:05:32;;;;;;;0.60;0.60;;;;;;;8.44;65.83;96748.09;29395;236;63011;-63
2021/05/24 02:06:04;;;;;;;0.60;0.60;;;;;;;8.44;65.86;96748.09;29395;196;63009;-63
2021/05/24 02:06:35;;;;;;;0.60;0.60;;;;;;;8.44;65.49;96748.09;29395;292;63004;-64
2021/05/24 02:07:06;;;;;;;0.70;0.70;;;;;;;8.42;66.02;96749.47;29395;254;63009;-64
2021/05/24 02:07:38;;;;;;;0.60;0.60;;;;;;;8.38;65.75;96751.91;29395;208;63004;-66
2021/05/24 02:08:12;;;;;;;0.55;0.55;;;;;;;8.40;66.10;96741.63;29395;226;63009;-63
2021/05/24 02:08:43;;;;;;;0.60;0.60;;;;;;;8.39;65.70;96737.31;29395;223;63004;-63
2021/05/24 02:09:14;;;;;;;0.60;0.60;;;;;;;8.41;65.87;96737.84;29394;207;64014;-63
2021/05/24 02:09:45;;;;;;;0.55;0.55;;;;;;;8.39;65.99;96730.00;29395;205;63005;-63
2021/05/24 02:10:21;;;;;;;0.50;0.50;;;;;;;8.44;65.99;96737.28;29395;223;63019;-64
2021/05/24 02:10:52;;;;;;;0.60;0.60;;;;;;;8.43;65.67;96741.06;29395;211;63005;-64
2021/05/24 02:11:23;;;;;;;0.60;0.60;;;;;;;8.46;65.99;96732.38;29395;208;63009;-64
2021/05/24 02:11:54;;;;;;;0.60;0.60;;;;;;;8.47;65.90;96736.72;29395;209;63005;-63
2021/05/24 02:12:26;;;;;;;0.60;0.60;;;;;;;8.46;65.56;96735.09;29395;222;63009;-63
2021/05/24 02:12:58;;;;;;;0.50;0.50;;;;;;;8.47;66.01;96731.31;29395;245;63004;-62
2021/05/24 02:13:30;;;;;;;0.60;0.60;;;;;;;8.49;66.03;96728.31;29395;265;63009;-62
2021/05/24 02:14:02;;;;;;;0.60;0.60;;;;;;;8.48;66.00;96730.22;29395;232;63004;-60
2021/05/24 02:14:37;;;;;;;0.60;0.60;;;;;;;8.45;66.08;96729.97;29394;261;64013;-63
2021/05/24 02:15:11;;;;;;;0.62;0.62;;;;;;;8.40;66.00;96725.41;29395;206;63007;-58
2021/05/24 02:15:42;;;;;;;0.60;0.60;;;;;;;8.37;66.35;96725.97;29395;228;63004;-58
2021/05/24 02:16:14;;;;;;;0.65;0.65;;;;;;;8.34;66.30;96726.53;29395;220;63004;-64
2021/05/24 02:16:49;;;;;;;0.60;0.60;;;;;;;8.30;66.67;96726.28;29395;227;63009;-62
2021/05/24 02:17:20;;;;;;;0.60;0.60;;;;;;;8.28;66.46;96733.06;29395;214;63005;-63
2021/05/24 02:17:52;;;;;;;0.60;0.60;;;;;;;8.25;66.89;96728.22;29395;203;63009;-64
2021/05/24 02:18:23;;;;;;;0.60;0.60;;;;;;;8.20;67.15;96730.94;29395;273;63010;-62
2021/05/24 02:18:54;;;;;;;0.60;0.60;;;;;;;8.21;66.96;96737.97;29394;290;64013;-64
2021/05/24 02:19:26;;;;;;;0.62;0.62;;;;;;;8.17;67.17;96726.91;29394;214;64009;-63
2021/05/24 02:19:57;;;;;;;0.60;0.60;;;;;;;8.14;67.17;96732.88;29394;414;64013;-64
2021/05/24 02:20:29;;;;;;;0.60;0.60;;;;;;;8.11;67.43;96732.63;29394;231;64004;-61
2021/05/24 02:21:02;;;;;;;0.57;0.57;;;;;;;8.10;67.70;96725.59;29395;210;63018;-63
2021/05/24 02:21:34;;;;;;;0.60;0.60;;;;;;;8.07;67.45;96721.56;29395;196;63011;-63
2021/05/24 02:22:05;;;;;;;0.60;0.60;;;;;;;8.10;67.77;96714.78;29395;265;63016;-63
2021/05/24 02:22:36;;;;;;;0.60;0.60;;;;;;;8.10;67.67;96721.00;29395;215;63004;-63
2021/05/24 02:23:09;;;;;;;0.60;0.60;;;;;;;8.11;67.80;96716.41;29395;226;63004;-62
2021/05/24 02:23:40;;;;;;;0.60;0.60;;;;;;;8.11;67.55;96714.53;29395;198;63005;-63
2021/05/24 02:24:12;;;;;;;0.60;0.60;;;;;;;8.17;67.36;96715.28;29395;203;63009;-64
2021/05/24 02:24:43;;;;;;;0.60;0.60;;;;;;;8.16;67.31;96719.88;29395;215;63005;-62
2021/05/24 02:25:15;;;;;;;0.60;0.60;;;;;;;8.15;67.47;96720.97;29394;204;64013;-62
2021/05/24 02:25:47;;;;;;;0.60;0.60;;;;;;;8.18;67.63;96716.91;29395;285;63005;-64
2021/05/24 02:26:18;;;;;;;0.60;0.60;;;;;;;8.17;67.48;96716.09;29395;196;63009;-63
2021/05/24 02:26:49;;;;;;;0.60;0.60;;;;;;;8.16;67.51;96716.37;29395;246;63017;-58
2021/05/24 02:27:20;;;;;;;0.60;0.60;;;;;;;8.12;67.72;96718.84;29395;205;63009;-63
2021/05/24 02:27:52;;;;;;;0.60;0.60;;;;;;;8.11;67.70;96711.00;29395;226;63004;-65
2021/05/24 02:28:23;;;;;;;0.73;0.73;;;;;;;8.08;68.07;96713.19;29395;248;63009;-64
2021/05/24 02:28:54;;;;;;;0.60;0.60;;;;;;;8.06;67.74;96714.53;29395;250;63010;-63
2021/05/24 02:29:25;;;;;;;0.60;0.60;;;;;;;8.03;68.01;96721.31;29395;224;63009;-64
2021/05/24 02:29:57;;;;;;;0.50;0.50;;;;;;;8.00;67.92;96713.78;29395;240;63005;-63
2021/05/24 02:30:29;;;;;;;0.50;0.50;;;;;;;7.99;68.34;96714.84;29394;229;64013;-63
2021/05/24 02:31:00;;;;;;;0.60;0.60;;;;;;;7.98;68.38;96715.94;29395;209;63001;-63
2021/05/24 02:31:33;;;;;;;0.60;0.60;;;;;;;7.96;68.44;96712.75;29395;199;63009;-63
2021/05/24 02:32:05;;;;;;;0.60;0.60;;;;;;;7.95;68.57;96705.72;29395;212;63001;-61
2021/05/24 02:32:38;;;;;;;0.60;0.60;;;;;;;7.95;68.58;96708.44;29395;260;63009;-64
2021/05/24 02:33:09;;;;;;;0.60;0.60;;;;;;;7.96;68.47;96707.34;29395;238;63005;-62
2021/05/24 02:33:40;;;;;;;0.60;0.60;;;;;;;7.95;68.60;96704.91;29395;240;63009;-63
2021/05/24 02:34:12;;;;;;;0.60;0.60;;;;;;;7.93;68.29;96697.09;29395;244;63005;-59
2021/05/24 02:34:46;;;;;;;0.60;0.60;;;;;;;7.99;68.63;96704.06;29395;335;63009;-62
2021/05/24 02:35:20;;;;;;;0.60;0.60;;;;;;;7.98;68.35;96699.72;29395;204;63004;-64